Hines Creek, Canada
Current Conditions -  °F | °C
As of 9:00 PM on Friday 31 Oct 2014 (Local Time) from CYPE Reporting Station
Broken Clouds Broken Clouds  
Wind Chill: 31°   Ceiling: 8000
Heat Index: 36°   Visibility: 15mi
Dew Point: 32°   Wind: 6mph
Humidity: 87%   Direction: 220°SW
Pressure: 29.67"   Gusts: NA
Location:  56.23°N, 118.6°W
Report Text: CYPE 010300Z 22005KT 15SM BKN080 02/M00 A2967 RMK AC7 SLP073
Loading
Personal Weather Stations






























Interactive Weather Map
Tropical Storm Tracking
New forecast layout! Learn more

10-Day Weather Forecast

Advertisements
Track Severe Weather on mobile